Jauru, Brazil
Current Conditions -  °F | °C
As of 8:00 PM on Friday 24 Oct 2014 (Local Time) from SLSI Reporting Station
Scattered Clouds Scattered Clouds  
Wind Chill: 81°   Ceiling: Unl
Heat Index: 86°   Visibility: 6mi
Dew Point: 75°   Wind: 0mph
Humidity: 84%   Direction: NA
Pressure: 29.85"   Gusts: NA
Location:  15.34°S, 58.88°W
Report Text: SLSI 242300Z 00000KT 9999 SCT070 27/24 Q1011
Loading
Personal Weather Stations






























Interactive Weather Map
Tropical Storm Tracking
New forecast layout! Learn more

10-Day Weather Forecast

Advertisements
Track Severe Weather on mobile